Time;durP1;ratioP1;P1;durP2;ratioP2;P2;SDS_P1;SDS_P2;PMS_P1;PMS_P2;Temp;Humidity;BMP_temperature;BMP_pressure;BME280_temperature;BME280_humidity;BME280_pressure;Samples;Min_cycle;Max_cycle;Signal;HPM_P1;HPM_P2
2022/06/18 00:00:31;;;;;;;;;13.75;13.75;;;;;;;;4978244;28;45393;-67
2022/06/18 00:02:56;;;;;;;;;14.25;13.50;;;;;;;;4973347;28;45469;-69
2022/06/18 00:05:22;;;;;;;;;14.50;13.50;;;;;;;;4971051;28;47745;-68
2022/06/18 00:07:49;;;;;;;;;18.50;17.25;;;;;;;;4973454;28;45359;-67
2022/06/18 00:10:19;;;;;;;;;15.75;15.50;;;;;;;;4972514;28;45605;-68
2022/06/18 00:15:35;;;;;;;;;13.50;13.50;;;;;;;;4972022;28;45497;-67
2022/06/18 00:18:01;;;;;;;;;16.00;15.25;;;;;;;;4972725;28;45519;-67
2022/06/18 00:20:28;;;;;;;;;17.00;16.00;;;;;;;;4985755;28;45533;-69
2022/06/18 00:22:55;;;;;;;;;19.75;17.75;;;;;;;;4956558;28;45333;-68
2022/06/18 00:25:20;;;;;;;;;13.50;13.50;;;;;;;;4959126;28;45802;-67
2022/06/18 00:27:46;;;;;;;;;14.75;14.00;;;;;;;;4961130;28;45584;-67
2022/06/18 00:30:16;;;;;;;;;13.75;13.00;;;;;;;;4960287;28;45336;-66
2022/06/18 00:32:41;;;;;;;;;13.25;13.25;;;;;;;;4961698;28;45308;-68
2022/06/18 00:35:07;;;;;;;;;16.25;16.00;;;;;;;;4972621;28;45429;-67
2022/06/18 00:37:32;;;;;;;;;16.00;14.25;;;;;;;;4973671;28;45936;-67
2022/06/18 00:39:58;;;;;;;;;13.75;13.75;;;;;;;;4972649;28;45529;-67
2022/06/18 00:42:27;;;;;;;;;12.50;12.50;;;;;;;;4971406;28;45525;-67
2022/06/18 00:44:54;;;;;;;;;11.75;11.75;;;;;;;;4971263;28;45569;-68
2022/06/18 00:47:30;;;;;;;;;12.25;10.75;;;;;;;;5001918;28;45659;-68
2022/06/18 00:50:16;;;;;;;;;12.25;12.25;;;;;;;;4970761;28;45573;-67
2022/06/18 00:52:47;;;;;;;;;12.75;12.75;;;;;;;;4967926;28;45578;-67
2022/06/18 00:55:22;;;;;;;;;12.25;12.25;;;;;;;;4971015;28;45960;-67
2022/06/18 00:58:00;;;;;;;;;10.25;9.50;;;;;;;;4977835;28;45637;-67
2022/06/18 01:00:28;;;;;;;;;14.00;12.25;;;;;;;;4962381;28;45555;-68
2022/06/18 01:02:54;;;;;;;;;12.75;11.50;;;;;;;;4958662;28;45379;-67
2022/06/18 01:05:20;;;;;;;;;12.50;11.25;;;;;;;;4984478;28;47566;-68
2022/06/18 01:07:48;;;;;;;;;11.75;11.75;;;;;;;;4972117;28;45426;-66
2022/06/18 01:10:16;;;;;;;;;11.75;11.25;;;;;;;;4971776;28;45383;-68
2022/06/18 01:12:41;;;;;;;;;11.25;10.00;;;;;;;;4957920;28;45497;-67
2022/06/18 01:15:08;;;;;;;;;11.50;11.50;;;;;;;;4955063;28;47584;-68
2022/06/18 01:17:35;;;;;;;;;14.25;13.25;;;;;;;;4960480;28;45522;-68
2022/06/18 01:20:04;;;;;;;;;13.25;12.50;;;;;;;;4960910;28;45576;-67
2022/06/18 01:22:32;;;;;;;;;14.50;13.50;;;;;;;;4963776;28;45469;-67
2022/06/18 01:24:57;;;;;;;;;12.50;12.50;;;;;;;;4972032;28;46761;-67
2022/06/18 01:27:23;;;;;;;;;11.25;10.25;;;;;;;;4956268;28;45478;-66
2022/06/18 01:29:48;;;;;;;;;12.00;11.25;;;;;;;;4958998;28;45478;-67
2022/06/18 01:32:14;;;;;;;;;10.00;10.00;;;;;;;;5001309;28;45554;-67
2022/06/18 01:34:39;;;;;;;;;8.00;8.00;;;;;;;;4971682;28;46919;-67
2022/06/18 01:37:06;;;;;;;;;12.25;11.00;;;;;;;;5003260;28;45979;-68
2022/06/18 01:39:33;;;;;;;;;11.75;11.50;;;;;;;;4971874;28;45346;-68
2022/06/18 01:42:01;;;;;;;;;5.25;5.25;;;;;;;;4972538;28;45540;-68
2022/06/18 01:44:31;;;;;;;;;9.75;9.75;;;;;;;;4971565;28;46480;-68
2022/06/18 01:46:59;;;;;;;;;10.25;10.25;;;;;;;;4996341;28;45471;-68
2022/06/18 01:49:27;;;;;;;;;14.75;11.25;;;;;;;;4963044;28;45419;-67
2022/06/18 01:51:54;;;;;;;;;12.50;11.50;;;;;;;;4964737;28;45627;-68
2022/06/18 01:54:21;;;;;;;;;12.25;11.25;;;;;;;;5002531;28;47638;-69
2022/06/18 01:56:52;;;;;;;;;10.50;9.25;;;;;;;;4970774;28;45854;-68
2022/06/18 01:59:26;;;;;;;;;11.25;11.25;;;;;;;;5002563;28;45531;-68
2022/06/18 02:01:52;;;;;;;;;14.50;11.50;;;;;;;;4970180;28;45474;-68
2022/06/18 02:04:18;;;;;;;;;12.00;12.00;;;;;;;;4969633;28;46206;-68
2022/06/18 02:06:44;;;;;;;;;11.50;11.50;;;;;;;;4964745;28;46594;-68
2022/06/18 02:09:25;;;;;;;;;10.00;10.00;;;;;;;;4969477;28;45441;-67
2022/06/18 02:11:50;;;;;;;;;9.25;9.25;;;;;;;;4956603;28;45875;-67
2022/06/18 02:14:15;;;;;;;;;11.25;11.25;;;;;;;;4989767;28;47520;-68
2022/06/18 02:16:43;;;;;;;;;11.50;11.50;;;;;;;;4963802;28;47635;-68
2022/06/18 02:19:09;;;;;;;;;7.75;7.75;;;;;;;;4970344;28;45508;-68
2022/06/18 02:21:38;;;;;;;;;12.25;12.25;;;;;;;;4966910;28;47607;-67
2022/06/18 02:24:03;;;;;;;;;13.50;12.75;;;;;;;;4968851;28;46398;-67
2022/06/18 02:26:29;;;;;;;;;14.00;14.00;;;;;;;;5002870;28;46211;-67
2022/06/18 02:28:55;;;;;;;;;13.75;13.00;;;;;;;;4971379;28;45402;-66
2022/06/18 02:31:23;;;;;;;;;14.50;14.50;;;;;;;;4957909;28;45422;-66
2022/06/18 02:33:51;;;;;;;;;7.75;7.25;;;;;;;;4982803;28;47929;-67
2022/06/18 02:36:23;;;;;;;;;11.75;11.75;;;;;;;;4965659;28;45394;-66
2022/06/18 02:38:49;;;;;;;;;15.75;14.75;;;;;;;;4959202;28;45493;-67
2022/06/18 02:41:14;;;;;;;;;14.50;13.50;;;;;;;;4960358;28;45399;-68
2022/06/18 02:43:41;;;;;;;;;10.75;10.75;;;;;;;;4972961;28;48384;-66
2022/06/18 02:46:07;;;;;;;;;14.75;13.75;;;;;;;;4974668;28;45482;-68
2022/06/18 02:48:34;;;;;;;;;16.50;15.25;;;;;;;;4966488;28;45422;-67
2022/06/18 02:51:00;;;;;;;;;14.75;14.75;;;;;;;;4963092;28;45530;-68
2022/06/18 02:53:26;;;;;;;;;11.50;11.50;;;;;;;;4960199;28;48613;-67
2022/06/18 02:55:53;;;;;;;;;15.25;13.75;;;;;;;;4972758;28;45574;-68
2022/06/18 02:58:21;;;;;;;;;16.00;15.25;;;;;;;;4992723;28;45315;-67
2022/06/18 03:00:48;;;;;;;;;14.75;14.25;;;;;;;;4961720;28;45560;-67
2022/06/18 03:03:14;;;;;;;;;12.75;12.75;;;;;;;;4964175;28;46233;-67
2022/06/18 03:05:40;;;;;;;;;13.25;13.25;;;;;;;;4974156;28;45444;-67
2022/06/18 03:08:05;;;;;;;;;12.75;12.75;;;;;;;;4965782;28;45585;-67
2022/06/18 03:13:18;;;;;;;;;16.50;14.25;;;;;;;;4962327;28;45703;-67
2022/06/18 03:15:43;;;;;;;;;14.50;12.75;;;;;;;;4967941;28;45493;-67
2022/06/18 03:18:09;;;;;;;;;9.75;9.75;;;;;;;;5000702;28;45798;-67
2022/06/18 03:20:45;;;;;;;;;11.00;11.00;;;;;;;;4962046;28;45420;-67
2022/06/18 03:23:19;;;;;;;;;12.50;12.50;;;;;;;;4973271;28;46112;-68
2022/06/18 03:25:45;;;;;;;;;12.75;12.25;;;;;;;;4957669;28;45519;-66
2022/06/18 03:28:14;;;;;;;;;10.25;10.25;;;;;;;;4993985;28;45442;-67
2022/06/18 03:30:39;;;;;;;;;13.25;12.25;;;;;;;;4978330;28;45534;-67
2022/06/18 03:33:05;;;;;;;;;14.25;14.25;;;;;;;;4980333;28;46228;-67
2022/06/18 03:35:30;;;;;;;;;11.50;11.50;;;;;;;;4973505;28;45515;-67
2022/06/18 03:37:56;;;;;;;;;14.50;13.75;;;;;;;;4957545;28;45378;-68
2022/06/18 03:40:21;;;;;;;;;12.50;11.75;;;;;;;;4991527;28;45412;-68
2022/06/18 03:42:46;;;;;;;;;12.00;12.00;;;;;;;;4962266;28;45581;-68
2022/06/18 03:45:11;;;;;;;;;12.25;12.25;;;;;;;;4962201;28;45610;-68
2022/06/18 03:47:36;;;;;;;;;13.00;13.00;;;;;;;;4961058;28;45371;-66
2022/06/18 03:50:02;;;;;;;;;14.00;13.25;;;;;;;;4956692;28;45527;-68
2022/06/18 03:52:27;;;;;;;;;13.75;11.25;;;;;;;;4995172;28;47634;-68
2022/06/18 03:54:52;;;;;;;;;10.00;10.00;;;;;;;;4966093;28;45575;-69
2022/06/18 03:57:18;;;;;;;;;10.25;10.25;;;;;;;;4970330;28;45578;-67
2022/06/18 03:59:44;;;;;;;;;10.75;10.75;;;;;;;;4970495;28;45404;-67
2022/06/18 04:02:09;;;;;;;;;13.75;11.00;;;;;;;;4987990;28;47704;-67
2022/06/18 04:04:34;;;;;;;;;12.25;10.75;;;;;;;;4989422;28;46210;-67
2022/06/18 04:07:00;;;;;;;;;10.75;10.75;;;;;;;;4961583;28;45514;-66
2022/06/18 04:09:25;;;;;;;;;12.75;11.50;;;;;;;;4961837;28;45540;-66
2022/06/18 04:11:50;;;;;;;;;10.00;10.00;;;;;;;;4992913;28;48732;-67
2022/06/18 04:14:16;;;;;;;;;12.00;11.25;;;;;;;;4990147;28;46113;-67
2022/06/18 04:16:41;;;;;;;;;10.75;10.75;;;;;;;;4957439;28;45451;-67
2022/06/18 04:19:08;;;;;;;;;12.25;10.75;;;;;;;;4983599;28;45513;-67
2022/06/18 04:21:33;;;;;;;;;10.00;10.00;;;;;;;;4961597;28;45504;-68
2022/06/18 04:23:58;;;;;;;;;10.75;10.75;;;;;;;;4959828;28;45510;-66
2022/06/18 04:26:23;;;;;;;;;11.00;10.25;;;;;;;;4959984;28;45705;-67
2022/06/18 04:28:49;;;;;;;;;9.00;9.00;;;;;;;;4957416;28;45393;-67
2022/06/18 04:31:14;;;;;;;;;11.75;10.75;;;;;;;;4960468;28;46526;-67
2022/06/18 04:33:39;;;;;;;;;11.75;11.75;;;;;;;;4981336;28;45745;-67
2022/06/18 04:36:05;;;;;;;;;10.50;9.75;;;;;;;;4968919;28;45407;-68
2022/06/18 04:38:30;;;;;;;;;9.00;9.00;;;;;;;;4992314;28;45296;-69
2022/06/18 04:40:55;;;;;;;;;7.75;7.75;;;;;;;;4956768;28;45853;-70
2022/06/18 04:43:20;;;;;;;;;10.50;9.25;;;;;;;;4959753;28;45432;-69
2022/06/18 04:45:46;;;;;;;;;10.75;9.50;;;;;;;;4992669;28;45391;-68
2022/06/18 04:48:12;;;;;;;;;12.00;11.25;;;;;;;;4961424;28;45879;-68
2022/06/18 04:50:38;;;;;;;;;8.00;8.00;;;;;;;;4961350;28;45411;-67
2022/06/18 04:53:04;;;;;;;;;12.00;9.50;;;;;;;;5003909;28;45338;-68
2022/06/18 04:55:30;;;;;;;;;12.50;12.50;;;;;;;;4989602;28;45939;-69
2022/06/18 04:57:55;;;;;;;;;14.00;11.50;;;;;;;;4960987;28;45574;-67
2022/06/18 05:00:21;;;;;;;;;13.25;13.25;;;;;;;;4992088;28;48612;-67
2022/06/18 05:02:46;;;;;;;;;10.25;10.25;;;;;;;;4965678;28;45555;-67
2022/06/18 05:05:16;;;;;;;;;10.25;10.25;;;;;;;;4971129;28;45631;-68
2022/06/18 05:07:42;;;;;;;;;12.00;12.00;;;;;;;;4972773;28;45407;-67
2022/06/18 05:10:08;;;;;;;;;13.25;13.25;;;;;;;;5003268;28;47459;-68
2022/06/18 05:12:33;;;;;;;;;14.00;14.00;;;;;;;;4996847;28;46225;-67
2022/06/18 05:14:58;;;;;;;;;14.50;13.50;;;;;;;;4995652;28;45488;-66
2022/06/18 05:17:29;;;;;;;;;13.50;13.00;;;;;;;;4971091;28;45498;-66
2022/06/18 05:19:54;;;;;;;;;14.00;14.00;;;;;;;;4972560;28;45390;-66
2022/06/18 05:22:19;;;;;;;;;14.75;14.00;;;;;;;;4990624;28;45370;-67
2022/06/18 05:24:44;;;;;;;;;13.25;13.25;;;;;;;;4970231;28;45395;-67
2022/06/18 05:27:18;;;;;;;;;14.00;12.00;;;;;;;;4972535;28;45482;-66
2022/06/18 05:29:44;;;;;;;;;15.50;13.00;;;;;;;;5003506;28;47660;-66
2022/06/18 05:32:09;;;;;;;;;15.50;14.00;;;;;;;;4971962;28;46197;-66
2022/06/18 05:34:34;;;;;;;;;14.25;13.25;;;;;;;;4972934;28;45559;-65
2022/06/18 05:36:59;;;;;;;;;14.00;12.75;;;;;;;;4992406;28;45413;-67
2022/06/18 05:39:24;;;;;;;;;12.50;10.25;;;;;;;;4967263;28;45613;-68
2022/06/18 05:41:50;;;;;;;;;11.00;10.50;;;;;;;;5003422;28;45571;-68
2022/06/18 05:44:15;;;;;;;;;11.25;11.25;;;;;;;;4969300;28;45498;-68
2022/06/18 05:46:40;;;;;;;;;13.50;12.50;;;;;;;;4964765;28;45557;-69
2022/06/18 05:49:06;;;;;;;;;12.00;12.00;;;;;;;;4964485;28;46667;-67
2022/06/18 05:51:31;;;;;;;;;13.50;13.50;;;;;;;;4971378;28;45280;-66
2022/06/18 05:53:56;;;;;;;;;14.25;14.25;;;;;;;;4972374;28;45492;-67
2022/06/18 05:56:21;;;;;;;;;13.25;13.25;;;;;;;;4972353;28;45984;-67
2022/06/18 05:58:46;;;;;;;;;14.75;13.75;;;;;;;;4998365;28;47759;-68
2022/06/18 06:01:12;;;;;;;;;16.00;12.25;;;;;;;;4994941;28;45859;-67
2022/06/18 06:03:37;;;;;;;;;12.75;12.75;;;;;;;;4963420;28;47136;-67
2022/06/18 06:06:02;;;;;;;;;11.00;11.00;;;;;;;;4961230;28;47159;-67
2022/06/18 06:08:28;;;;;;;;;14.00;13.00;;;;;;;;5001509;28;48532;-67
2022/06/18 06:13:37;;;;;;;;;18.25;13.75;;;;;;;;4973002;28;45604;-66
2022/06/18 06:16:02;;;;;;;;;16.00;14.50;;;;;;;;4979788;28;45505;-67
2022/06/18 06:18:28;;;;;;;;;12.50;11.50;;;;;;;;4972627;28;48565;-67
2022/06/18 06:20:55;;;;;;;;;18.50;15.75;;;;;;;;4975986;28;45495;-68
2022/06/18 06:23:20;;;;;;;;;14.00;13.50;;;;;;;;4970095;28;47469;-66
2022/06/18 06:25:47;;;;;;;;;16.50;16.25;;;;;;;;4984376;28;45534;-68
2022/06/18 06:28:20;;;;;;;;;13.75;13.75;;;;;;;;4997818;28;47776;-68
2022/06/18 06:30:45;;;;;;;;;12.00;12.00;;;;;;;;4971867;28;46275;-68
2022/06/18 06:33:10;;;;;;;;;14.50;14.50;;;;;;;;4969373;28;45734;-70
2022/06/18 06:35:36;;;;;;;;;12.00;11.75;;;;;;;;4959447;28;45438;-67
2022/06/18 06:38:02;;;;;;;;;11.50;11.50;;;;;;;;4958288;28;46221;-69
2022/06/18 06:40:30;;;;;;;;;14.25;13.50;;;;;;;;4960338;28;45933;-66
2022/06/18 06:42:58;;;;;;;;;9.50;9.25;;;;;;;;4961956;28;45430;-69
2022/06/18 06:45:25;;;;;;;;;16.75;16.50;;;;;;;;4967635;28;45590;-68
2022/06/18 06:47:51;;;;;;;;;15.75;14.50;;;;;;;;4963132;28;48870;-68
2022/06/18 06:50:17;;;;;;;;;15.75;15.00;;;;;;;;4969761;28;45586;-68
2022/06/18 06:52:43;;;;;;;;;19.25;16.00;;;;;;;;5002583;28;45543;-67
2022/06/18 06:58:14;;;;;;;;;15.75;13.75;;;;;;;;4983759;28;45924;-67
2022/06/18 07:00:41;;;;;;;;;16.00;15.50;;;;;;;;4976472;28;45498;-68
2022/06/18 07:03:06;;;;;;;;;16.25;14.50;;;;;;;;4970079;28;45634;-68
2022/06/18 07:05:32;;;;;;;;;13.75;13.00;;;;;;;;4961985;28;45528;-68
2022/06/18 07:07:57;;;;;;;;;15.25;14.75;;;;;;;;4973629;28;45492;-68
2022/06/18 07:10:22;;;;;;;;;15.75;13.75;;;;;;;;4960569;28;45355;-67
2022/06/18 07:12:48;;;;;;;;;15.75;14.50;;;;;;;;4989502;28;45477;-67
2022/06/18 07:15:13;;;;;;;;;14.25;13.50;;;;;;;;4980596;28;45470;-68
2022/06/18 07:17:38;;;;;;;;;14.75;13.50;;;;;;;;4973999;28;46482;-68
2022/06/18 07:20:04;;;;;;;;;16.50;15.00;;;;;;;;4958523;28;45343;-67
2022/06/18 07:22:31;;;;;;;;;12.50;12.50;;;;;;;;4995245;28;45363;-67
2022/06/18 07:24:56;;;;;;;;;13.50;12.75;;;;;;;;4972291;28;45575;-67
2022/06/18 07:27:22;;;;;;;;;13.00;13.00;;;;;;;;4988747;28;47635;-66
2022/06/18 07:29:47;;;;;;;;;12.50;12.50;;;;;;;;4969610;28;45669;-66
2022/06/18 07:32:16;;;;;;;;;14.75;13.50;;;;;;;;4963616;28;45817;-65
2022/06/18 07:34:41;;;;;;;;;14.50;13.75;;;;;;;;4966723;28;45459;-63
2022/06/18 07:37:07;;;;;;;;;13.25;13.25;;;;;;;;4972979;28;46539;-66
2022/06/18 07:39:32;;;;;;;;;12.50;12.50;;;;;;;;4972341;28;45422;-66
2022/06/18 07:41:57;;;;;;;;;11.75;11.75;;;;;;;;4973529;28;45510;-67
2022/06/18 07:44:24;;;;;;;;;10.50;10.50;;;;;;;;4972291;28;45586;-66
2022/06/18 07:46:51;;;;;;;;;10.75;9.75;;;;;;;;4971319;28;47255;-67
2022/06/18 07:49:17;;;;;;;;;11.25;11.00;;;;;;;;4973182;28;45837;-67
2022/06/18 07:51:42;;;;;;;;;11.50;11.00;;;;;;;;4972602;28;45581;-66
2022/06/18 07:54:09;;;;;;;;;10.00;9.75;;;;;;;;4973092;28;45390;-67
2022/06/18 07:56:34;;;;;;;;;10.00;10.00;;;;;;;;4972633;28;45403;-66
2022/06/18 07:58:59;;;;;;;;;13.25;12.00;;;;;;;;4972449;28;45444;-66
2022/06/18 08:01:25;;;;;;;;;12.00;11.75;;;;;;;;5004766;28;45560;-65
2022/06/18 08:03:51;;;;;;;;;11.50;11.50;;;;;;;;4965353;28;45342;-65
2022/06/18 08:06:16;;;;;;;;;13.25;11.50;;;;;;;;4966495;28;45519;-65
2022/06/18 08:08:41;;;;;;;;;13.75;11.50;;;;;;;;4971729;28;45656;-65
2022/06/18 08:11:10;;;;;;;;;12.50;11.25;;;;;;;;4964322;28;45434;-67
2022/06/18 08:13:35;;;;;;;;;14.25;13.00;;;;;;;;4961259;28;45557;-67
2022/06/18 08:16:00;;;;;;;;;9.75;9.75;;;;;;;;4972309;28;46420;-65
2022/06/18 08:18:26;;;;;;;;;12.00;11.00;;;;;;;;4972120;28;45516;-65
2022/06/18 08:20:51;;;;;;;;;11.00;11.00;;;;;;;;5004694;28;45455;-67
2022/06/18 08:23:16;;;;;;;;;14.00;12.75;;;;;;;;4972075;28;45459;-65
2022/06/18 08:25:42;;;;;;;;;13.00;11.75;;;;;;;;4984931;28;47908;-67
2022/06/18 08:28:09;;;;;;;;;10.50;10.50;;;;;;;;5004133;28;45901;-67
2022/06/18 08:30:34;;;;;;;;;11.00;11.00;;;;;;;;4968576;28;45921;-65
2022/06/18 08:32:59;;;;;;;;;12.75;12.75;;;;;;;;5003597;28;45458;-65
2022/06/18 08:35:25;;;;;;;;;12.25;12.25;;;;;;;;4970960;28;46203;-66
2022/06/18 08:37:51;;;;;;;;;11.75;10.50;;;;;;;;4968210;28;46365;-65
2022/06/18 08:40:37;;;;;;;;;9.75;9.75;;;;;;;;5004571;28;45725;-66
2022/06/18 08:43:07;;;;;;;;;12.00;12.00;;;;;;;;5001904;28;45633;-65
2022/06/18 08:45:52;;;;;;;;;12.75;12.75;;;;;;;;4964431;28;45678;-67
2022/06/18 08:48:35;;;;;;;;;14.50;14.00;;;;;;;;4969091;28;45509;-66
2022/06/18 08:51:11;;;;;;;;;10.00;9.75;;;;;;;;4963221;28;45504;-67
2022/06/18 08:53:39;;;;;;;;;6.00;6.00;;;;;;;;4971067;28;45857;-66
2022/06/18 08:56:07;;;;;;;;;8.50;8.50;;;;;;;;4967633;28;47817;-67
2022/06/18 08:58:42;;;;;;;;;15.00;13.75;;;;;;;;4971595;28;45547;-66
2022/06/18 09:01:24;;;;;;;;;10.00;10.00;;;;;;;;4970843;28;45434;-68
2022/06/18 09:03:50;;;;;;;;;12.00;12.00;;;;;;;;4963830;28;45407;-68
2022/06/18 09:06:26;;;;;;;;;11.75;11.75;;;;;;;;4996993;28;47084;-65
2022/06/18 09:09:10;;;;;;;;;11.50;11.50;;;;;;;;4970250;28;45541;-68
2022/06/18 09:11:41;;;;;;;;;9.50;9.50;;;;;;;;4996767;28;45567;-67
2022/06/18 09:14:09;;;;;;;;;11.25;11.25;;;;;;;;4996925;28;45800;-68
2022/06/18 09:16:42;;;;;;;;;11.25;11.00;;;;;;;;4967411;28;46195;-69
2022/06/18 09:19:08;;;;;;;;;12.00;9.25;;;;;;;;4963655;28;46084;-68
2022/06/18 09:21:40;;;;;;;;;10.25;10.25;;;;;;;;4960315;28;45452;-69
2022/06/18 09:24:06;;;;;;;;;9.50;9.50;;;;;;;;4967029;28;45438;-67
2022/06/18 09:26:37;;;;;;;;;13.00;13.00;;;;;;;;4971278;28;45753;-69
2022/06/18 09:29:08;;;;;;;;;12.00;12.00;;;;;;;;4969633;28;45481;-68
2022/06/18 09:31:40;;;;;;;;;14.25;13.00;;;;;;;;4970768;28;45460;-68
2022/06/18 09:34:11;;;;;;;;;11.00;11.00;;;;;;;;4970693;28;45509;-69
2022/06/18 09:36:40;;;;;;;;;10.75;10.75;;;;;;;;5002468;28;48104;-66
2022/06/18 09:39:30;;;;;;;;;12.00;10.25;;;;;;;;4967268;28;47309;-68
2022/06/18 09:42:07;;;;;;;;;11.50;10.50;;;;;;;;4963834;28;45725;-66
2022/06/18 09:44:44;;;;;;;;;11.00;9.75;;;;;;;;4982155;28;45697;-68
2022/06/18 09:47:18;;;;;;;;;13.75;13.75;;;;;;;;4970089;28;45976;-68
2022/06/18 09:49:45;;;;;;;;;9.75;9.75;;;;;;;;5005352;28;47131;-67
2022/06/18 09:52:19;;;;;;;;;10.00;10.00;;;;;;;;4967927;28;45501;-66
2022/06/18 09:54:50;;;;;;;;;8.25;8.25;;;;;;;;4972993;28;45570;-66
2022/06/18 09:57:18;;;;;;;;;10.75;10.75;;;;;;;;4970819;28;46661;-66
2022/06/18 09:59:51;;;;;;;;;10.00;10.00;;;;;;;;4968500;28;45485;-67
2022/06/18 10:02:18;;;;;;;;;9.50;9.00;;;;;;;;4972460;28;45731;-67
2022/06/18 10:07:29;;;;;;;;;10.00;10.00;;;;;;;;4970654;28;45501;-67
2022/06/18 10:09:57;;;;;;;;;7.25;7.25;;;;;;;;4969966;28;45403;-66
2022/06/18 10:12:22;;;;;;;;;10.00;7.50;;;;;;;;4966554;28;45976;-66
2022/06/18 10:14:53;;;;;;;;;6.75;6.75;;;;;;;;4975097;28;45719;-66
2022/06/18 10:17:26;;;;;;;;;7.25;7.25;;;;;;;;4973499;28;45911;-68
2022/06/18 10:20:04;;;;;;;;;6.75;6.75;;;;;;;;4970399;28;46046;-67
2022/06/18 10:22:35;;;;;;;;;7.00;6.75;;;;;;;;4969666;28;47933;-67
2022/06/18 10:25:00;;;;;;;;;6.50;6.00;;;;;;;;4999615;28;45531;-66
2022/06/18 10:27:45;;;;;;;;;8.00;6.00;;;;;;;;4972587;28;45757;-67
2022/06/18 10:30:18;;;;;;;;;9.00;9.00;;;;;;;;4975807;28;45431;-65
2022/06/18 10:32:46;;;;;;;;;7.75;6.25;;;;;;;;4976607;28;45355;-66
2022/06/18 10:35:21;;;;;;;;;8.50;7.25;;;;;;;;4977327;28;45836;-66
2022/06/18 10:37:56;;;;;;;;;8.25;7.25;;;;;;;;4973939;28;45517;-66
2022/06/18 10:40:28;;;;;;;;;7.00;6.25;;;;;;;;4970514;28;45546;-67
2022/06/18 10:42:53;;;;;;;;;8.50;6.00;;;;;;;;4973227;28;45534;-66
2022/06/18 10:45:18;;;;;;;;;9.00;7.75;;;;;;;;4973347;28;45378;-67
2022/06/18 10:47:46;;;;;;;;;8.50;8.50;;;;;;;;4972107;28;45604;-67
2022/06/18 10:50:13;;;;;;;;;9.00;7.75;;;;;;;;4973836;28;45436;-66
2022/06/18 10:52:39;;;;;;;;;9.50;7.25;;;;;;;;4972999;28;45551;-67
2022/06/18 10:55:18;;;;;;;;;10.00;10.00;;;;;;;;4972738;28;45339;-67
2022/06/18 10:57:44;;;;;;;;;8.75;8.75;;;;;;;;4972315;28;46301;-66
2022/06/18 11:00:15;;;;;;;;;10.25;7.25;;;;;;;;4973005;28;45480;-66
2022/06/18 11:02:41;;;;;;;;;9.00;9.00;;;;;;;;4973828;28;45386;-67
2022/06/18 11:05:29;;;;;;;;;6.25;6.25;;;;;;;;4973802;28;45488;-66
2022/06/18 11:07:55;;;;;;;;;10.25;9.00;;;;;;;;4966470;28;45773;-66
2022/06/18 11:10:24;;;;;;;;;9.00;6.75;;;;;;;;4974433;28;45486;-67
2022/06/18 11:12:54;;;;;;;;;8.00;7.50;;;;;;;;4987210;28;45566;-67
2022/06/18 11:15:22;;;;;;;;;9.00;9.00;;;;;;;;4969876;28;45458;-67
2022/06/18 11:17:47;;;;;;;;;9.50;9.50;;;;;;;;4970129;28;46253;-67
2022/06/18 11:20:17;;;;;;;;;9.00;9.00;;;;;;;;4973553;28;45531;-67
2022/06/18 11:22:44;;;;;;;;;11.25;9.75;;;;;;;;4973733;28;45435;-65
2022/06/18 11:25:39;;;;;;;;;10.25;9.00;;;;;;;;4973688;28;45539;-66
2022/06/18 11:28:07;;;;;;;;;9.50;8.75;;;;;;;;4954431;28;46100;-66
2022/06/18 11:30:42;;;;;;;;;8.00;7.75;;;;;;;;4967055;28;46402;-65
2022/06/18 11:33:28;;;;;;;;;8.75;8.75;;;;;;;;4973466;28;45992;-67
2022/06/18 11:35:53;;;;;;;;;10.50;9.00;;;;;;;;4961839;28;45494;-67
2022/06/18 11:38:18;;;;;;;;;9.00;9.00;;;;;;;;4971539;28;46729;-67
2022/06/18 11:40:50;;;;;;;;;11.00;9.50;;;;;;;;4973286;28;45268;-67
2022/06/18 11:43:34;;;;;;;;;8.25;8.00;;;;;;;;4973500;28;45513;-67
2022/06/18 11:46:08;;;;;;;;;10.00;9.75;;;;;;;;4973039;28;45376;-66
2022/06/18 11:48:44;;;;;;;;;10.25;8.75;;;;;;;;4964406;28;46847;-66
2022/06/18 11:51:19;;;;;;;;;8.25;8.25;;;;;;;;4972474;28;45708;-67
2022/06/18 11:54:04;;;;;;;;;9.50;9.25;;;;;;;;4971376;28;45489;-67
2022/06/18 11:56:48;;;;;;;;;13.00;11.25;;;;;;;;4999522;28;45489;-67
2022/06/18 11:59:23;;;;;;;;;10.25;9.75;;;;;;;;4974203;28;46682;-68
2022/06/18 12:02:00;;;;;;;;;11.00;8.75;;;;;;;;4971486;28;46227;-67
2022/06/18 12:04:25;;;;;;;;;10.25;9.50;;;;;;;;4975891;28;45609;-67
2022/06/18 12:07:09;;;;;;;;;11.00;8.00;;;;;;;;4979262;28;45426;-66
2022/06/18 12:09:36;;;;;;;;;8.25;8.25;;;;;;;;4975641;28;46455;-66
2022/06/18 12:12:10;;;;;;;;;11.00;10.00;;;;;;;;4975741;28;45484;-68
2022/06/18 12:14:47;;;;;;;;;6.25;6.25;;;;;;;;4975638;28;45365;-67
2022/06/18 12:17:20;;;;;;;;;10.75;8.50;;;;;;;;4975441;28;45557;-66
2022/06/18 12:19:45;;;;;;;;;11.75;9.25;;;;;;;;4975303;28;46228;-65
2022/06/18 12:22:26;;;;;;;;;7.25;7.00;;;;;;;;4975826;28;45585;-67
2022/06/18 12:25:06;;;;;;;;;8.50;8.25;;;;;;;;4988015;28;45524;-67
2022/06/18 12:27:35;;;;;;;;;12.00;10.75;;;;;;;;5006162;28;45581;-65
2022/06/18 12:30:03;;;;;;;;;8.50;7.50;;;;;;;;4976336;28;45886;-67
2022/06/18 12:32:31;;;;;;;;;7.25;7.25;;;;;;;;4975204;28;45415;-67
2022/06/18 12:35:00;;;;;;;;;9.25;6.25;;;;;;;;5011396;28;45475;-66
2022/06/18 12:37:25;;;;;;;;;6.00;6.00;;;;;;;;4973893;28;45681;-65
2022/06/18 12:40:09;;;;;;;;;6.25;6.00;;;;;;;;4975106;28;45476;-66
2022/06/18 12:42:37;;;;;;;;;8.00;6.50;;;;;;;;4974875;28;45567;-66
2022/06/18 12:45:13;;;;;;;;;10.00;7.50;;;;;;;;4969713;28;45442;-68
2022/06/18 12:47:46;;;;;;;;;10.75;9.50;;;;;;;;4973646;28;45888;-68
2022/06/18 12:50:11;;;;;;;;;9.25;9.25;;;;;;;;4975054;28;46697;-67
2022/06/18 12:52:47;;;;;;;;;11.25;10.00;;;;;;;;4979646;28;45498;-67
2022/06/18 12:55:15;;;;;;;;;15.50;11.50;;;;;;;;4975640;28;45525;-67
2022/06/18 12:57:41;;;;;;;;;11.00;10.00;;;;;;;;4971119;28;45561;-67
2022/06/18 13:00:14;;;;;;;;;8.50;8.25;;;;;;;;4975198;28;45922;-66
2022/06/18 13:02:58;;;;;;;;;9.25;7.00;;;;;;;;4974702;28;45763;-66
2022/06/18 13:05:42;;;;;;;;;8.25;8.25;;;;;;;;5006586;28;45379;-66
2022/06/18 13:08:17;;;;;;;;;11.25;8.75;;;;;;;;5007814;28;46910;-66
2022/06/18 13:10:51;;;;;;;;;9.25;9.00;;;;;;;;5001249;28;47067;-66
2022/06/18 13:13:26;;;;;;;;;12.75;10.00;;;;;;;;4979244;28;45530;-67
2022/06/18 13:16:11;;;;;;;;;18.25;17.00;;;;;;;;4974254;28;45553;-67
2022/06/18 13:18:43;;;;;;;;;15.25;14.50;;;;;;;;4974300;28;45419;-66
2022/06/18 13:21:09;;;;;;;;;11.50;7.25;;;;;;;;4974620;28;45739;-66
2022/06/18 13:29:05;;;;;;;;;9.00;7.75;;;;;;;;4973059;28;45864;-66
2022/06/18 13:31:36;;;;;;;;;8.00;8.00;;;;;;;;4970265;28;46513;-66
2022/06/18 13:34:14;;;;;;;;;11.75;11.00;;;;;;;;4970144;28;45581;-67
2022/06/18 13:36:39;;;;;;;;;11.25;10.75;;;;;;;;4975387;28;45490;-65
2022/06/18 13:39:04;;;;;;;;;11.25;11.25;;;;;;;;4972367;28;45574;-66
2022/06/18 13:41:33;;;;;;;;;13.00;11.00;;;;;;;;4971807;28;46390;-67
2022/06/18 13:44:04;;;;;;;;;14.00;14.00;;;;;;;;4967462;28;46033;-67
2022/06/18 13:46:41;;;;;;;;;12.50;10.00;;;;;;;;5003149;28;45990;-67
2022/06/18 13:49:18;;;;;;;;;11.00;11.00;;;;;;;;4974629;28;45581;-68
2022/06/18 13:51:45;;;;;;;;;10.00;10.00;;;;;;;;4956536;28;48011;-67
2022/06/18 13:54:12;;;;;;;;;14.00;11.00;;;;;;;;4971807;28;45490;-67
2022/06/18 13:56:39;;;;;;;;;10.50;9.50;;;;;;;;4971498;28;45885;-67
2022/06/18 13:59:04;;;;;;;;;8.25;8.25;;;;;;;;4974825;28;45593;-67
2022/06/18 14:01:44;;;;;;;;;9.50;9.50;;;;;;;;4967998;28;47513;-67
2022/06/18 14:04:17;;;;;;;;;8.75;8.75;;;;;;;;4972061;28;45417;-67
2022/06/18 14:06:50;;;;;;;;;13.00;11.50;;;;;;;;4970348;28;45562;-66
2022/06/18 14:09:19;;;;;;;;;12.00;9.25;;;;;;;;4972688;28;45589;-67
2022/06/18 14:11:48;;;;;;;;;8.50;8.50;;;;;;;;4989363;28;48664;-65
2022/06/18 14:14:25;;;;;;;;;7.50;7.50;;;;;;;;4969961;28;46180;-67
2022/06/18 14:17:01;;;;;;;;;13.75;12.00;;;;;;;;4971170;28;47634;-67
2022/06/18 14:19:28;;;;;;;;;12.50;10.00;;;;;;;;5002798;28;45769;-68
2022/06/18 14:22:19;;;;;;;;;7.50;7.50;;;;;;;;4980141;28;48591;-67
2022/06/18 14:24:47;;;;;;;;;10.00;9.00;;;;;;;;4971913;28;45322;-66
2022/06/18 14:27:20;;;;;;;;;10.75;10.25;;;;;;;;4973946;28;45453;-67
2022/06/18 14:29:45;;;;;;;;;12.00;10.75;;;;;;;;4974447;28;45372;-67
2022/06/18 14:32:16;;;;;;;;;9.75;8.75;;;;;;;;4971157;28;45466;-68
2022/06/18 14:34:44;;;;;;;;;10.50;9.75;;;;;;;;4972920;28;45382;-67
2022/06/18 14:37:11;;;;;;;;;8.75;8.75;;;;;;;;4973931;28;45507;-67
2022/06/18 14:39:51;;;;;;;;;10.25;10.25;;;;;;;;4974509;28;45771;-66
2022/06/18 14:42:44;;;;;;;;;12.25;10.75;;;;;;;;4974486;28;46366;-66
2022/06/18 14:45:28;;;;;;;;;10.00;10.00;;;;;;;;4973277;28;45576;-66
2022/06/18 14:48:11;;;;;;;;;9.50;8.25;;;;;;;;4973226;28;45920;-68
2022/06/18 14:50:42;;;;;;;;;11.25;11.25;;;;;;;;4974279;28;45389;-68
2022/06/18 14:53:10;;;;;;;;;12.25;10.50;;;;;;;;4973707;28;45737;-66